createdAt,value
2022-12-06T00:04:29.029Z,3.54
2022-12-06T00:09:33.657Z,3.55
2022-12-06T00:14:35.461Z,3.58
2022-12-06T00:19:37.049Z,3.59
2022-12-06T00:24:38.582Z,3.53
2022-12-06T00:29:40.204Z,3.56
2022-12-06T00:34:41.719Z,3.57
2022-12-06T00:39:43.393Z,3.57
2022-12-06T00:44:45.001Z,3.58
2022-12-06T00:49:46.562Z,3.51
2022-12-06T00:54:48.185Z,3.54
2022-12-06T00:59:49.777Z,3.54
2022-12-06T01:11:45.175Z,3.51
2022-12-06T01:16:46.774Z,3.51
2022-12-06T01:21:49.035Z,3.53
2022-12-06T01:26:50.718Z,3.54
2022-12-06T01:31:52.408Z,3.53
2022-12-06T01:36:54.105Z,3.51
2022-12-06T01:41:56.028Z,3.57
2022-12-06T01:46:57.688Z,3.68
2022-12-06T01:52:05.981Z,3.60
2022-12-06T01:57:11.295Z,3.69
2022-12-06T02:02:13.910Z,3.64
2022-12-06T02:07:18.740Z,3.69
2022-12-06T02:12:20.407Z,3.67
2022-12-06T02:17:46.738Z,3.64
2022-12-06T02:23:20.689Z,3.65
2022-12-06T02:28:44.101Z,3.66
2022-12-06T02:34:05.408Z,3.71
2022-12-06T02:39:12.807Z,3.70
2022-12-06T02:44:27.397Z,3.70
2022-12-06T02:49:33.568Z,3.73
2022-12-06T02:54:35.369Z,3.75
2022-12-06T02:59:37.078Z,3.76
2022-12-06T03:04:50.413Z,3.74
2022-12-06T03:10:32.108Z,3.76
2022-12-06T03:15:48.419Z,3.77
2022-12-06T03:27:25.807Z,3.77
2022-12-06T03:32:32.483Z,3.83
2022-12-06T03:37:37.992Z,3.81
2022-12-06T03:42:40.057Z,3.84
2022-12-06T03:48:12.777Z,3.79
2022-12-06T03:53:17.713Z,3.83
2022-12-06T03:58:20.237Z,3.81
2022-12-06T04:03:21.977Z,3.78
2022-12-06T04:08:23.753Z,3.75
2022-12-06T04:13:26.210Z,3.81
2022-12-06T04:18:28.672Z,3.78
2022-12-06T04:23:32.242Z,3.79
2022-12-06T04:28:52.901Z,3.81
2022-12-06T04:34:13.261Z,3.80
2022-12-06T04:39:19.254Z,3.73
2022-12-06T04:44:22.557Z,3.76
2022-12-06T04:49:26.413Z,3.72
2022-12-06T04:54:30.140Z,3.73
2022-12-06T04:59:31.755Z,3.74
2022-12-06T05:04:34.086Z,3.71
2022-12-06T05:09:38.850Z,3.67
2022-12-06T05:14:40.705Z,3.64
2022-12-06T05:19:42.728Z,3.59
2022-12-06T05:24:44.288Z,3.56
2022-12-06T05:29:45.823Z,3.57
2022-12-06T05:34:47.402Z,3.47
2022-12-06T05:39:48.952Z,3.49
2022-12-06T05:44:50.509Z,3.47
2022-12-06T05:49:52.087Z,3.49
2022-12-06T05:54:53.681Z,3.42
2022-12-06T05:59:55.328Z,3.44
2022-12-06T06:04:56.918Z,3.49
2022-12-06T06:09:58.806Z,3.52
2022-12-06T06:15:00.721Z,3.53
2022-12-06T06:20:08.137Z,3.58
2022-12-06T06:25:10.626Z,3.49
2022-12-06T06:30:13.276Z,3.56
2022-12-06T06:35:14.849Z,3.58
2022-12-06T06:40:16.523Z,3.56
2022-12-06T06:45:18.094Z,3.47
2022-12-06T06:50:19.676Z,3.44
2022-12-06T06:55:21.294Z,3.42
2022-12-06T07:00:23.063Z,3.40
2022-12-06T07:05:24.968Z,3.38
2022-12-06T07:10:27.370Z,3.35
2022-12-06T07:15:28.898Z,3.34
2022-12-06T07:20:30.441Z,3.31
2022-12-06T07:25:32.608Z,3.33
2022-12-06T07:30:34.328Z,3.37
2022-12-06T07:36:10.436Z,3.33
2022-12-06T07:41:25.543Z,3.31
2022-12-06T07:46:27.427Z,3.39
2022-12-06T07:51:29.045Z,3.36
2022-12-06T07:56:30.612Z,3.37
2022-12-06T08:01:32.287Z,3.30
2022-12-06T08:06:34.767Z,3.18
2022-12-06T08:11:36.753Z,3.10
2022-12-06T08:16:40.794Z,3.10
2022-12-06T08:21:42.380Z,3.08
2022-12-06T08:26:44.171Z,3.13
2022-12-06T08:31:46.852Z,3.24
2022-12-06T08:36:48.696Z,3.34
2022-12-06T08:41:57.930Z,3.43
2022-12-06T08:47:02.195Z,3.38
2022-12-06T08:52:04.068Z,3.36
2022-12-06T08:57:05.775Z,3.40
2022-12-06T09:02:07.429Z,3.43
2022-12-06T09:07:11.903Z,3.76
2022-12-06T09:12:14.004Z,4.03
2022-12-06T09:17:15.712Z,3.97
2022-12-06T09:22:17.506Z,3.88
2022-12-06T09:34:04.690Z,3.57
2022-12-06T09:39:55.812Z,3.33
2022-12-06T09:45:49.089Z,3.57
2022-12-06T09:58:39.896Z,3.96
2022-12-06T10:05:00.241Z,3.98
2022-12-06T10:11:02.743Z,4.03
2022-12-06T10:17:10.069Z,4.46
2022-12-06T10:22:37.158Z,4.33
2022-12-06T10:28:16.274Z,4.69
2022-12-06T10:33:39.541Z,4.73
2022-12-06T10:39:15.546Z,5.34
2022-12-06T10:44:49.012Z,5.31
2022-12-06T10:50:49.892Z,4.76
2022-12-06T10:56:44.457Z,5.64
2022-12-06T11:02:30.427Z,5.82
2022-12-06T11:08:02.725Z,6.27
2022-12-06T11:14:08.579Z,5.83
2022-12-06T11:19:45.423Z,5.78
2022-12-06T11:25:31.549Z,5.63
2022-12-06T11:31:01.002Z,6.29
2022-12-06T11:36:16.269Z,5.52
2022-12-06T11:41:37.550Z,6.69
2022-12-06T11:47:30.843Z,6.89
2022-12-06T11:52:55.937Z,7.27
2022-12-06T11:58:16.475Z,5.79
2022-12-06T12:03:47.684Z,6.54
2022-12-06T12:09:46.905Z,7.59
2022-12-06T12:15:00.936Z,6.29
2022-12-06T12:21:00.169Z,5.94
2022-12-06T12:26:21.148Z,5.81
2022-12-06T12:31:24.672Z,5.77
2022-12-06T12:36:30.558Z,5.75
2022-12-06T12:41:44.503Z,5.77
2022-12-06T12:47:02.797Z,5.63
2022-12-06T12:52:29.517Z,5.61
2022-12-06T12:57:31.232Z,5.59
2022-12-06T13:02:36.201Z,5.66
2022-12-06T13:07:42.498Z,5.56
2022-12-06T13:12:56.420Z,5.70
2022-12-06T13:18:26.738Z,5.56
2022-12-06T13:23:34.229Z,5.53
2022-12-06T13:28:52.623Z,5.57
2022-12-06T13:34:07.259Z,5.57
2022-12-06T13:46:27.866Z,5.51
2022-12-06T13:57:22.384Z,5.51
2022-12-06T14:02:45.222Z,5.48
2022-12-06T14:07:47.235Z,5.38
2022-12-06T14:13:23.206Z,5.37
2022-12-06T14:18:28.190Z,5.37
2022-12-06T14:23:46.899Z,5.40
2022-12-06T14:29:04.562Z,5.40
2022-12-06T14:34:06.453Z,5.35
2022-12-06T14:39:24.453Z,5.33
2022-12-06T14:44:36.630Z,5.17
2022-12-06T14:50:04.990Z,5.13
2022-12-06T14:55:24.879Z,5.07
2022-12-06T15:00:38.665Z,5.02
2022-12-06T15:06:09.499Z,4.96
2022-12-06T15:11:34.285Z,4.86
2022-12-06T15:16:36.432Z,4.90
2022-12-06T15:21:38.381Z,4.84
2022-12-06T15:26:43.184Z,4.75
2022-12-06T15:31:51.954Z,4.61
2022-12-06T15:37:15.566Z,4.69
2022-12-06T15:42:24.080Z,4.70
2022-12-06T15:47:28.455Z,4.67
2022-12-06T15:52:30.200Z,4.62
2022-12-06T15:57:32.281Z,4.59
2022-12-06T16:02:34.340Z,4.60
2022-12-06T16:07:44.046Z,4.52
2022-12-06T16:13:04.616Z,4.51
2022-12-06T16:18:10.800Z,4.47
2022-12-06T16:24:12.005Z,4.51
2022-12-06T16:29:06.040Z,4.52
2022-12-06T16:34:08.578Z,4.52
2022-12-06T16:39:10.791Z,4.53
2022-12-06T16:44:12.813Z,4.54
2022-12-06T16:54:50.643Z,4.57
2022-12-06T16:59:53.543Z,4.60
2022-12-06T17:04:57.423Z,4.57
2022-12-06T17:10:00.313Z,4.50
2022-12-06T17:15:02.968Z,4.45
2022-12-06T17:20:08.102Z,4.45
2022-12-06T17:25:12.863Z,4.49
2022-12-06T17:30:20.129Z,4.54
2022-12-06T17:35:21.852Z,4.51
2022-12-06T17:40:23.573Z,4.38
2022-12-06T17:45:31.651Z,4.35
2022-12-06T17:50:35.881Z,4.36
2022-12-06T17:55:37.735Z,4.35
2022-12-06T18:00:39.697Z,4.36
2022-12-06T18:05:42.336Z,4.32
2022-12-06T18:10:44.374Z,4.34
2022-12-06T18:15:46.497Z,4.34
2022-12-06T18:20:48.324Z,4.30
2022-12-06T18:25:50.380Z,4.28
2022-12-06T18:30:52.232Z,4.19
2022-12-06T18:35:54.035Z,4.03
2022-12-06T18:41:20.684Z,3.73
2022-12-06T18:46:24.017Z,3.62
2022-12-06T18:51:30.152Z,3.81
2022-12-06T18:56:33.452Z,3.78
2022-12-06T19:01:38.408Z,3.84
2022-12-06T19:06:40.363Z,3.83
2022-12-06T19:11:44.510Z,4.01
2022-12-06T19:16:48.662Z,4.10
2022-12-06T19:21:52.536Z,4.16
2022-12-06T19:26:55.618Z,4.17
2022-12-06T19:31:57.382Z,4.10
2022-12-06T19:37:01.127Z,3.97
2022-12-06T19:42:21.389Z,4.04
2022-12-06T19:47:28.848Z,4.13
2022-12-06T19:53:25.276Z,4.15
2022-12-06T19:58:27.254Z,4.00
2022-12-06T20:03:29.018Z,3.83
2022-12-06T20:08:59.430Z,3.70
2022-12-06T20:14:07.006Z,3.81
2022-12-06T20:19:10.021Z,3.97
2022-12-06T20:24:13.768Z,4.00
2022-12-06T20:29:18.065Z,3.95
2022-12-06T20:34:20.013Z,3.91
2022-12-06T20:39:24.253Z,3.84
2022-12-06T20:44:25.948Z,3.78
2022-12-06T20:49:27.748Z,3.72
2022-12-06T20:54:29.530Z,3.61
2022-12-06T20:59:31.221Z,3.59
2022-12-06T21:04:32.900Z,3.65
2022-12-06T21:09:36.906Z,3.54
2022-12-06T21:14:38.608Z,3.40
2022-12-06T21:19:40.387Z,3.41
2022-12-06T21:24:42.042Z,3.35
2022-12-06T21:29:43.784Z,3.41
2022-12-06T21:34:47.792Z,3.25
2022-12-06T21:39:49.488Z,3.07
2022-12-06T21:44:51.249Z,2.93
2022-12-06T21:49:52.978Z,2.94
2022-12-06T21:54:56.497Z,2.95
2022-12-06T21:59:58.248Z,2.87
2022-12-06T22:05:00.170Z,2.96
2022-12-06T22:10:02.284Z,2.99
2022-12-06T22:15:04.610Z,2.78
2022-12-06T22:20:07.096Z,2.79
2022-12-06T22:25:09.278Z,2.70
2022-12-06T22:30:11.485Z,2.67
2022-12-06T22:35:13.421Z,2.74
2022-12-06T22:40:15.382Z,2.82
2022-12-06T22:45:17.222Z,2.79
2022-12-06T22:50:18.843Z,2.70
2022-12-06T22:55:20.566Z,2.63
2022-12-06T23:00:22.385Z,2.64
2022-12-06T23:05:26.688Z,2.66
2022-12-06T23:10:28.820Z,2.73
2022-12-06T23:15:31.680Z,2.95
2022-12-06T23:20:33.586Z,3.01
2022-12-06T23:25:35.226Z,3.02
2022-12-06T23:30:36.954Z,3.09
2022-12-06T23:35:38.624Z,3.14
2022-12-06T23:40:40.253Z,3.11
2022-12-06T23:45:42.059Z,3.16
2022-12-06T23:51:14.146Z,3.17
2022-12-06T23:56:20.614Z,3.14
